This is the latest recevied weather packets stored in our database for station/object E23XBQ-1. If no packets are shown the sender has not sent any weather packets the latest 10 day(s).
| Time | Temp. | Humidity | Pressure | Rain* | Wind** | Luminosity | Snow |
|---|---|---|---|---|---|---|---|
| 1777949186 | 32.22° C | 64% | 976 hPa | - | - | 0 W/m² | - |
| 1777948562 | 32.22° C | 62% | 976 hPa | - | - | 0 W/m² | - |
| 1777947938 | 31.67° C | 67% | 976 hPa | - | - | 0 W/m² | - |
| 1777947313 | 31.11° C | 75% | 975 hPa | - | - | 0 W/m² | - |
| 1777946688 | 30° C | 79% | 975 hPa | - | - | 0 W/m² | - |
| 1777946063 | 29.44° C | 85% | 975 hPa | - | - | 0 W/m² | - |
| 1777945439 | 29.44° C | 84% | 975 hPa | - | - | 0 W/m² | - |
| 1777944815 | 28.89° C | 89% | 975 hPa | - | - | 0 W/m² | - |
| 1777944190 | 27.22° C | 99% | 975 hPa | - | - | 0 W/m² | - |
| 1777943565 | 26.67° C | 99% | 976 hPa | - | - | 0 W/m² | - |
| 1777942941 | 26.67° C | 99% | 975 hPa | - | - | 0 W/m² | - |
| 1777942316 | 26.11° C | 99% | 975 hPa | - | - | 0 W/m² | - |
| 1777941692 | 26.11° C | 99% | 975 hPa | - | - | 0 W/m² | - |
| 1777941067 | 26.11° C | 99% | 975 hPa | - | - | 0 W/m² | - |
| 1777940442 | 25.56° C | 99% | 975 hPa | - | - | 0 W/m² | - |
| 1777939808 | 25.56° C | 99% | 975 hPa | - | - | 0 W/m² | - |
| 1777939183 | 25° C | 99% | 975 hPa | - | - | 0 W/m² | - |
| 1777938558 | 25° C | 99% | 975 hPa | - | - | 0 W/m² | - |
| 1777937933 | 24.44° C | 99% | 974 hPa | - | - | 0 W/m² | - |
| 1777937308 | 24.44° C | 99% | 974 hPa | - | - | 0 W/m² | - |
| 1777936684 | 24.44° C | 99% | 974 hPa | - | - | 0 W/m² | - |
| 1777936059 | 24.44° C | 99% | 974 hPa | - | - | 0 W/m² | - |
| 1777935434 | 24.44° C | 99% | 974 hPa | - | - | 0 W/m² | - |
| 1777934810 | 23.89° C | 99% | 974 hPa | - | - | 0 W/m² | - |
| 1777934185 | 24.44° C | 99% | 974 hPa | - | - | 0 W/m² | - |
* Rain since midnight (hover to see other rain measurements)
** Current wind speed in m/s (hover to see current wind gust speed)